createdAt,value
2023-02-02T00:00:14.063Z,3.95
2023-02-02T00:02:39.803Z,2.42
2023-02-02T00:05:05.661Z,3.55
2023-02-02T00:07:31.374Z,2.55
2023-02-02T00:09:57.096Z,2.67
2023-02-02T00:12:22.818Z,4.30
2023-02-02T00:14:48.540Z,2.80
2023-02-02T00:17:14.300Z,2.60
2023-02-02T00:19:40.038Z,3.78
2023-02-02T00:22:05.779Z,3.65
2023-02-02T00:24:31.532Z,3.78
2023-02-02T00:26:58.385Z,3.08
2023-02-02T00:29:25.220Z,3.15
2023-02-02T00:31:51.409Z,2.55
2023-02-02T00:34:17.450Z,3.47
2023-02-02T00:36:43.755Z,2.53
2023-02-02T00:39:10.314Z,3.58
2023-02-02T00:41:36.055Z,3.67
2023-02-02T00:44:20.386Z,2.80
2023-02-02T00:46:46.147Z,4.47
2023-02-02T00:49:11.873Z,2.85
2023-02-02T00:51:37.739Z,3.17
2023-02-02T00:54:03.987Z,3.08
2023-02-02T00:56:29.830Z,3.97
2023-02-02T00:58:55.569Z,3.53
2023-02-02T01:01:22.047Z,2.90
2023-02-02T01:03:49.603Z,3.60
2023-02-02T01:06:15.588Z,3.42
2023-02-02T01:08:41.358Z,4.65
2023-02-02T01:11:07.508Z,3.17
2023-02-02T01:13:33.217Z,2.97
2023-02-02T01:15:59.646Z,3.17
2023-02-02T01:18:25.410Z,3.03
2023-02-02T01:20:58.080Z,2.65
2023-02-02T01:23:23.799Z,3.20
2023-02-02T01:25:53.500Z,2.35
2023-02-02T01:28:19.259Z,3.78
2023-02-02T01:30:45.010Z,3.00
2023-02-02T01:33:10.823Z,2.78
2023-02-02T01:35:36.552Z,2.35
2023-02-02T01:38:02.338Z,3.10
2023-02-02T01:40:28.054Z,3.13
2023-02-02T01:42:53.768Z,2.88
2023-02-02T01:45:27.472Z,3.22
2023-02-02T01:47:55.230Z,3.03
2023-02-02T01:50:28.982Z,2.80
2023-02-02T01:52:56.583Z,3.00
2023-02-02T01:55:24.375Z,4.72
2023-02-02T01:57:50.236Z,2.72
2023-02-02T02:00:16.288Z,2.60
2023-02-02T02:02:47.837Z,2.58
2023-02-02T02:05:15.049Z,3.17
2023-02-02T02:07:42.873Z,4.03
2023-02-02T02:10:08.869Z,2.75
2023-02-02T02:12:34.599Z,4.43
2023-02-02T02:15:19.050Z,2.35
2023-02-02T02:17:44.775Z,2.95
2023-02-02T02:20:50.231Z,3.83
2023-02-02T02:23:53.405Z,2.20
2023-02-02T02:26:34.494Z,2.45
2023-02-02T02:29:10.995Z,2.25
2023-02-02T02:31:55.401Z,2.63
2023-02-02T02:34:24.290Z,2.58
2023-02-02T02:37:00.364Z,2.10
2023-02-02T02:39:41.988Z,2.75
2023-02-02T02:42:11.610Z,2.08
2023-02-02T02:44:37.354Z,1.90
2023-02-02T02:47:03.300Z,2.70
2023-02-02T02:49:29.035Z,2.00
2023-02-02T02:51:55.456Z,1.75
2023-02-02T02:54:23.641Z,1.88
2023-02-02T02:57:06.639Z,2.80
2023-02-02T02:59:41.387Z,4.07
2023-02-02T03:02:10.329Z,2.85
2023-02-02T03:04:36.040Z,1.73
2023-02-02T03:07:09.472Z,2.20
2023-02-02T03:09:38.202Z,2.67
2023-02-02T03:12:04.261Z,1.90
2023-02-02T03:14:33.915Z,4.03
2023-02-02T03:16:59.630Z,2.75
2023-02-02T03:19:25.370Z,1.67
2023-02-02T03:21:51.350Z,2.17
2023-02-02T03:24:17.110Z,2.42
2023-02-02T03:26:43.142Z,2.17
2023-02-02T03:29:09.222Z,2.55
2023-02-02T03:31:35.068Z,2.17
2023-02-02T03:34:00.833Z,2.53
2023-02-02T03:36:27.267Z,2.22
2023-02-02T03:38:53.016Z,2.25
2023-02-02T03:41:18.778Z,1.45
2023-02-02T03:43:44.476Z,1.90
2023-02-02T03:46:10.422Z,2.78
2023-02-02T03:48:37.025Z,2.60
2023-02-02T03:51:13.050Z,1.92
2023-02-02T03:53:39.522Z,2.42
2023-02-02T03:56:05.559Z,1.73
2023-02-02T03:58:31.464Z,1.63
2023-02-02T04:01:04.302Z,1.75
2023-02-02T04:03:30.008Z,1.65
2023-02-02T04:05:55.749Z,2.03
2023-02-02T04:08:21.482Z,1.42
2023-02-02T04:10:47.358Z,2.13
2023-02-02T04:13:13.098Z,1.35
2023-02-02T04:15:38.838Z,2.25
2023-02-02T04:18:04.610Z,1.70
2023-02-02T04:20:30.374Z,2.05
2023-02-02T04:22:56.093Z,1.30
2023-02-02T04:25:21.863Z,1.45
2023-02-02T04:27:47.608Z,1.50
2023-02-02T04:30:13.388Z,1.73
2023-02-02T04:32:39.281Z,1.85
2023-02-02T04:35:05.348Z,1.42
2023-02-02T04:37:31.643Z,1.98
2023-02-02T04:39:57.407Z,2.22
2023-02-02T04:42:23.181Z,1.15
2023-02-02T04:44:48.914Z,1.33
2023-02-02T04:47:14.637Z,1.50
2023-02-02T04:49:40.409Z,1.40
2023-02-02T04:52:06.155Z,1.05
2023-02-02T04:54:32.383Z,1.65
2023-02-02T04:56:58.097Z,1.70
2023-02-02T04:59:24.065Z,1.80
2023-02-02T05:01:50.331Z,2.88
2023-02-02T05:04:16.204Z,2.53
2023-02-02T05:06:41.941Z,1.90
2023-02-02T05:09:07.966Z,1.65
2023-02-02T05:11:33.867Z,2.58
2023-02-02T05:13:59.607Z,1.30
2023-02-02T05:16:28.522Z,1.80
2023-02-02T05:18:56.520Z,2.05
2023-02-02T05:21:22.520Z,1.42
2023-02-02T05:23:48.578Z,1.60
2023-02-02T05:26:16.154Z,2.55
2023-02-02T05:28:45.067Z,2.55
2023-02-02T05:31:12.405Z,2.20
2023-02-02T05:33:38.695Z,1.58
2023-02-02T05:36:11.503Z,1.85
2023-02-02T05:38:37.742Z,2.00
2023-02-02T05:41:04.467Z,1.40
2023-02-02T05:43:31.162Z,2.05
2023-02-02T05:45:57.032Z,3.42
2023-02-02T05:48:24.478Z,1.60
2023-02-02T05:51:00.362Z,1.25
2023-02-02T05:53:27.490Z,1.50
2023-02-02T05:55:53.485Z,1.52
2023-02-02T05:58:19.376Z,1.50
2023-02-02T06:00:47.151Z,1.92
2023-02-02T06:03:13.568Z,1.42
2023-02-02T06:06:01.403Z,1.30
2023-02-02T06:08:30.223Z,1.55
2023-02-02T06:10:56.078Z,1.00
2023-02-02T06:13:26.609Z,1.95
2023-02-02T06:15:52.648Z,1.77
2023-02-02T06:18:19.467Z,2.65
2023-02-02T06:20:46.567Z,1.27
2023-02-02T06:23:12.543Z,2.38
2023-02-02T06:25:38.396Z,1.52
2023-02-02T06:28:04.608Z,1.95
2023-02-02T06:30:30.569Z,2.08
2023-02-02T06:32:58.833Z,2.75
2023-02-02T06:35:34.391Z,1.45
2023-02-02T06:38:01.129Z,2.15
2023-02-02T06:40:27.769Z,2.95
2023-02-02T06:43:02.979Z,2.47
2023-02-02T06:45:30.190Z,1.50
2023-02-02T06:48:03.998Z,3.50
2023-02-02T06:50:30.150Z,2.10
2023-02-02T06:52:56.314Z,2.35
2023-02-02T06:55:22.723Z,2.28
2023-02-02T06:57:48.972Z,1.90
2023-02-02T07:00:15.136Z,1.90
2023-02-02T07:02:44.240Z,2.63
2023-02-02T07:05:29.331Z,2.40
2023-02-02T07:07:56.507Z,2.92
2023-02-02T07:11:12.800Z,3.50
2023-02-02T07:13:08.821Z,3.47
2023-02-02T07:15:38.181Z,2.75
2023-02-02T07:18:04.757Z,3.10
2023-02-02T07:20:31.708Z,2.05
2023-02-02T07:22:58.116Z,2.95
2023-02-02T07:25:24.407Z,2.58
2023-02-02T07:27:59.590Z,2.72
2023-02-02T07:30:29.176Z,2.45
2023-02-02T07:32:56.095Z,2.25
2023-02-02T07:35:37.291Z,2.28
2023-02-02T07:38:03.149Z,2.50
2023-02-02T07:40:36.592Z,3.00
2023-02-02T07:43:03.499Z,2.78
2023-02-02T07:45:29.459Z,2.10
2023-02-02T07:47:59.665Z,1.92
2023-02-02T07:50:27.747Z,2.58
2023-02-02T07:53:08.232Z,1.80
2023-02-02T07:55:34.007Z,1.60
2023-02-02T07:58:01.065Z,2.45
2023-02-02T08:00:27.322Z,1.65
2023-02-02T08:02:53.696Z,1.52
2023-02-02T08:05:23.218Z,1.55
2023-02-02T08:07:50.515Z,2.33
2023-02-02T08:10:16.689Z,1.98
2023-02-02T08:12:42.712Z,2.42
2023-02-02T08:15:09.542Z,2.13
2023-02-02T08:20:17.523Z,1.15
2023-02-02T08:22:43.492Z,2.65
2023-02-02T08:25:09.550Z,1.50
2023-02-02T08:27:37.640Z,1.55
2023-02-02T08:30:04.149Z,1.85
2023-02-02T08:32:32.532Z,2.17
2023-02-02T08:35:05.156Z,1.33
2023-02-02T08:37:32.484Z,1.27
2023-02-02T08:39:59.027Z,1.90
2023-02-02T08:42:24.886Z,1.20
2023-02-02T08:46:01.898Z,1.02
2023-02-02T08:47:36.636Z,1.27
2023-02-02T08:50:02.881Z,1.55
2023-02-02T08:52:28.979Z,1.30
2023-02-02T08:54:54.845Z,2.03
2023-02-02T08:57:20.963Z,1.58
2023-02-02T08:59:46.988Z,1.25
2023-02-02T09:02:17.326Z,1.58
2023-02-02T09:04:44.972Z,2.08
2023-02-02T09:07:10.834Z,3.50
2023-02-02T09:09:36.918Z,2.13
2023-02-02T09:12:02.792Z,1.52
2023-02-02T09:14:28.832Z,2.15
2023-02-02T09:16:55.102Z,1.52
2023-02-02T09:19:21.081Z,2.55
2023-02-02T09:21:50.199Z,1.92
2023-02-02T09:24:16.216Z,2.17
2023-02-02T09:26:42.882Z,1.67
2023-02-02T09:29:11.475Z,1.90
2023-02-02T09:31:38.536Z,2.00
2023-02-02T09:34:06.154Z,2.13
2023-02-02T09:36:44.591Z,1.20
2023-02-02T09:39:12.373Z,3.33
2023-02-02T09:41:38.628Z,1.27
2023-02-02T09:44:13.923Z,1.73
2023-02-02T09:47:00.517Z,1.40
2023-02-02T09:49:31.415Z,1.83
2023-02-02T09:52:02.152Z,2.70
2023-02-02T09:54:37.010Z,2.75
2023-02-02T09:57:05.312Z,1.85
2023-02-02T09:59:36.762Z,1.45
2023-02-02T10:02:04.811Z,2.03
2023-02-02T10:04:33.667Z,1.40
2023-02-02T10:07:31.744Z,1.85
2023-02-02T10:10:00.044Z,1.15
2023-02-02T10:12:36.552Z,1.27
2023-02-02T10:15:29.991Z,2.13
2023-02-02T10:17:58.323Z,1.30
2023-02-02T10:20:34.281Z,1.98
2023-02-02T10:23:05.954Z,1.27
2023-02-02T10:25:31.934Z,0.93
2023-02-02T10:28:05.690Z,1.60
2023-02-02T10:30:37.000Z,1.75
2023-02-02T10:33:07.115Z,1.38
2023-02-02T10:35:54.112Z,1.40
2023-02-02T10:38:32.090Z,1.83
2023-02-02T10:41:04.159Z,2.05
2023-02-02T10:43:45.234Z,1.52
2023-02-02T10:46:17.059Z,1.08
2023-02-02T10:48:46.550Z,1.48
2023-02-02T10:51:17.224Z,0.60
2023-02-02T10:53:46.454Z,1.50
2023-02-02T10:56:13.639Z,1.27
2023-02-02T10:59:02.012Z,0.90
2023-02-02T11:01:29.519Z,0.63
2023-02-02T11:04:16.830Z,1.95
2023-02-02T11:06:51.016Z,2.00
2023-02-02T11:09:30.297Z,0.90
2023-02-02T11:12:20.758Z,1.02
2023-02-02T11:14:49.198Z,1.02
2023-02-02T11:17:43.368Z,2.80
2023-02-02T11:20:28.003Z,1.50
2023-02-02T11:23:11.927Z,1.85
2023-02-02T11:25:38.746Z,1.60
2023-02-02T11:28:21.499Z,1.58
2023-02-02T11:30:51.932Z,1.40
2023-02-02T11:33:33.770Z,1.30
2023-02-02T11:36:18.108Z,1.63
2023-02-02T11:38:44.382Z,1.55
2023-02-02T11:41:13.322Z,1.92
2023-02-02T11:43:50.546Z,1.58
2023-02-02T11:46:20.839Z,1.15
2023-02-02T11:48:50.609Z,1.02
2023-02-02T11:51:24.425Z,1.92
2023-02-02T11:54:02.819Z,1.15
2023-02-02T11:56:28.690Z,1.00
2023-02-02T11:59:01.002Z,1.55
2023-02-02T12:01:28.559Z,1.55
2023-02-02T12:03:56.919Z,2.15
2023-02-02T12:06:36.681Z,1.50
2023-02-02T12:09:09.898Z,1.50
2023-02-02T12:11:40.992Z,1.63
2023-02-02T12:17:12.195Z,2.17
2023-02-02T12:19:48.746Z,1.52
2023-02-02T12:22:28.503Z,1.67
2023-02-02T12:25:24.608Z,1.27
2023-02-02T12:27:59.170Z,1.27
2023-02-02T12:36:49.576Z,1.67
2023-02-02T12:39:23.461Z,0.80
2023-02-02T12:44:42.540Z,1.63
2023-02-02T12:47:15.324Z,1.00
2023-02-02T12:52:37.512Z,1.13
2023-02-02T12:55:04.021Z,1.20
2023-02-02T12:57:31.821Z,0.98
2023-02-02T13:00:10.494Z,1.25
2023-02-02T13:02:57.306Z,0.70
2023-02-02T13:06:23.767Z,2.25
2023-02-02T13:09:01.862Z,1.98
2023-02-02T13:11:58.293Z,1.10
2023-02-02T13:45:57.999Z,1.38
2023-02-02T13:54:27.183Z,1.35
2023-02-02T15:47:49.592Z,2.00
2023-02-02T15:50:18.652Z,2.20
2023-02-02T15:52:46.853Z,1.73
2023-02-02T15:55:23.725Z,1.60
2023-02-02T15:57:54.927Z,2.78
2023-02-02T16:03:07.197Z,2.80
2023-02-02T16:08:58.235Z,1.63
2023-02-02T16:11:29.328Z,1.40
2023-02-02T16:19:24.896Z,1.33
2023-02-02T16:22:09.463Z,1.85
2023-02-02T16:24:37.767Z,1.90
2023-02-02T16:29:49.309Z,1.67
2023-02-02T16:35:35.064Z,1.30
2023-02-02T16:38:33.940Z,1.92
2023-02-02T16:41:13.145Z,2.45
2023-02-02T16:43:50.418Z,2.13
2023-02-02T16:46:36.371Z,1.30
2023-02-02T16:49:07.560Z,1.60
2023-02-02T16:51:38.136Z,1.50
2023-02-02T16:54:07.539Z,1.70
2023-02-02T16:56:41.257Z,1.85
2023-02-02T16:59:26.096Z,1.73
2023-02-02T17:01:53.857Z,1.40
2023-02-02T17:04:24.255Z,1.25
2023-02-02T17:06:53.220Z,1.25
2023-02-02T17:09:29.243Z,1.80
2023-02-02T17:11:59.869Z,1.70
2023-02-02T17:14:34.103Z,1.95
2023-02-02T17:17:01.911Z,1.23
2023-02-02T17:22:14.069Z,2.03
2023-02-02T17:24:41.917Z,1.80
2023-02-02T17:27:12.831Z,2.05
2023-02-02T17:29:39.137Z,1.83
2023-02-02T17:32:08.456Z,1.77
2023-02-02T17:34:34.371Z,1.60
2023-02-02T17:37:09.543Z,2.15
2023-02-02T17:39:37.336Z,2.08
2023-02-02T17:42:05.330Z,2.15
2023-02-02T17:44:31.279Z,1.95
2023-02-02T17:46:59.261Z,2.63
2023-02-02T17:49:25.895Z,3.38
2023-02-02T17:51:54.364Z,3.20
2023-02-02T17:54:20.245Z,3.97
2023-02-02T17:56:48.537Z,4.17
2023-02-02T17:59:15.484Z,4.03
2023-02-02T18:01:41.527Z,3.90
2023-02-02T18:04:10.052Z,4.13
2023-02-02T18:06:38.347Z,3.70
2023-02-02T18:09:04.260Z,4.43
2023-02-02T18:11:30.097Z,4.00
2023-02-02T18:13:57.046Z,4.57
2023-02-02T18:16:33.478Z,6.45
2023-02-02T18:19:00.153Z,5.47
2023-02-02T18:21:28.635Z,3.90
2023-02-02T18:23:57.419Z,3.13
2023-02-02T18:26:23.384Z,4.17
2023-02-02T18:28:51.573Z,3.53
2023-02-02T18:31:24.868Z,3.13
2023-02-02T18:33:50.931Z,2.50
2023-02-02T18:36:36.577Z,2.00
2023-02-02T18:39:02.584Z,2.00
2023-02-02T18:41:29.357Z,2.80
2023-02-02T18:43:55.983Z,2.33
2023-02-02T18:46:22.496Z,1.90
2023-02-02T18:51:34.672Z,2.47
2023-02-02T18:54:02.541Z,2.40
2023-02-02T18:56:29.443Z,3.23
2023-02-02T18:58:57.785Z,3.67
2023-02-02T19:01:27.414Z,2.63
2023-02-02T19:03:54.569Z,3.30
2023-02-02T19:06:40.696Z,2.30
2023-02-02T19:09:06.793Z,2.13
2023-02-02T19:11:38.402Z,4.27
2023-02-02T19:14:15.069Z,2.90
2023-02-02T19:16:44.065Z,3.40
2023-02-02T19:19:19.131Z,2.33
2023-02-02T19:21:44.992Z,2.47
2023-02-02T19:24:12.205Z,2.97
2023-02-02T19:26:41.526Z,2.97
2023-02-02T19:29:12.633Z,3.27
2023-02-02T19:31:40.225Z,3.47
2023-02-02T19:34:10.488Z,3.07
2023-02-02T19:36:47.266Z,2.97
2023-02-02T19:39:21.862Z,2.13
2023-02-02T19:41:47.783Z,2.97
2023-02-02T19:44:19.652Z,3.10
2023-02-02T19:46:47.281Z,3.07
2023-02-02T19:49:15.724Z,2.53
2023-02-02T19:51:48.307Z,2.70
2023-02-02T19:54:25.131Z,1.97
2023-02-02T19:56:52.410Z,2.80
2023-02-02T19:59:19.439Z,3.83
2023-02-02T20:01:49.892Z,5.73
2023-02-02T20:04:20.057Z,5.35
2023-02-02T20:06:58.598Z,4.55
2023-02-02T20:09:28.831Z,5.60
2023-02-02T20:11:55.827Z,5.67
2023-02-02T20:14:28.667Z,5.33
2023-02-02T20:17:12.105Z,5.73
2023-02-02T20:19:40.110Z,5.35
2023-02-02T20:22:20.030Z,5.37
2023-02-02T20:24:48.220Z,3.60
2023-02-02T20:27:17.712Z,4.13
2023-02-02T20:29:45.275Z,4.32
2023-02-02T20:32:35.429Z,3.27
2023-02-02T20:35:13.211Z,4.25
2023-02-02T20:37:39.439Z,5.38
2023-02-02T20:40:22.040Z,7.43
2023-02-02T20:42:48.068Z,6.38
2023-02-02T20:45:16.694Z,5.72
2023-02-02T20:47:45.433Z,6.38
2023-02-02T20:50:12.312Z,5.30
2023-02-02T20:52:38.571Z,4.85
2023-02-02T20:55:04.814Z,6.40
2023-02-02T20:57:32.316Z,5.15
2023-02-02T20:59:59.168Z,6.03
2023-02-02T21:02:25.700Z,4.22
2023-02-02T21:04:56.660Z,4.60
2023-02-02T21:07:22.647Z,5.18
2023-02-02T21:09:50.067Z,5.03
2023-02-02T21:12:16.737Z,5.50
2023-02-02T21:14:46.661Z,5.75
2023-02-02T21:17:15.702Z,5.50
2023-02-02T21:19:42.174Z,6.20
2023-02-02T21:22:08.346Z,7.65
2023-02-02T21:24:34.149Z,8.10
2023-02-02T21:27:01.473Z,6.03
2023-02-02T21:29:31.377Z,7.07
2023-02-02T21:32:00.092Z,6.53
2023-02-02T21:34:26.169Z,6.93
2023-02-02T21:36:53.314Z,6.68
2023-02-02T21:39:24.977Z,8.20
2023-02-02T21:41:57.429Z,6.27
2023-02-02T21:44:23.253Z,5.60
2023-02-02T21:46:50.361Z,6.07
2023-02-02T21:49:17.364Z,5.30
2023-02-02T21:51:43.547Z,6.90
2023-02-02T21:54:18.923Z,5.13
2023-02-02T21:56:44.674Z,5.53
2023-02-02T21:59:18.390Z,6.40
2023-02-02T22:01:45.219Z,7.93
2023-02-02T22:04:33.277Z,6.00
2023-02-02T22:07:11.291Z,5.47
2023-02-02T22:09:39.563Z,7.07
2023-02-02T22:12:14.315Z,6.60
2023-02-02T22:14:41.700Z,6.00
2023-02-02T22:17:30.523Z,5.10
2023-02-02T22:19:56.334Z,5.10
2023-02-02T22:22:24.989Z,5.07
2023-02-02T22:25:23.630Z,5.38
2023-02-02T22:27:53.474Z,5.50
2023-02-02T22:30:25.996Z,6.53
2023-02-02T22:32:52.401Z,5.60
2023-02-02T22:35:23.815Z,5.50
2023-02-02T22:37:50.907Z,6.35
2023-02-02T22:40:18.541Z,4.50
2023-02-02T22:42:44.384Z,5.50
2023-02-02T22:45:10.467Z,4.40
2023-02-02T22:47:36.406Z,5.57
2023-02-02T22:50:02.284Z,5.60
2023-02-02T22:52:28.265Z,4.90
2023-02-02T22:54:54.231Z,3.65
2023-02-02T22:57:20.270Z,4.00
2023-02-02T22:59:46.201Z,3.47
2023-02-02T23:02:12.146Z,3.83
2023-02-02T23:04:38.062Z,3.00
2023-02-02T23:07:07.222Z,3.28
2023-02-02T23:09:33.335Z,3.58
2023-02-02T23:11:59.150Z,3.80
2023-02-02T23:14:25.163Z,3.22
2023-02-02T23:16:51.081Z,3.90
2023-02-02T23:19:17.019Z,4.43
2023-02-02T23:21:42.826Z,4.78
2023-02-02T23:24:08.714Z,3.60
2023-02-02T23:26:34.487Z,3.05
2023-02-02T23:29:00.429Z,2.88
2023-02-02T23:31:26.265Z,3.30
2023-02-02T23:33:52.293Z,3.22
2023-02-02T23:36:18.013Z,3.25
2023-02-02T23:38:43.729Z,2.80
2023-02-02T23:41:09.463Z,3.20
2023-02-02T23:43:35.240Z,3.30
2023-02-02T23:46:01.052Z,3.00
2023-02-02T23:48:26.829Z,3.42
2023-02-02T23:50:52.743Z,4.88
2023-02-02T23:53:18.576Z,5.03
2023-02-02T23:55:45.147Z,3.47
2023-02-02T23:58:12.083Z,3.15
